createdAt,value
2018-12-08T00:00:08.437Z,1.20
2018-12-08T00:02:37.269Z,2.10
2018-12-08T00:05:06.308Z,0.80
2018-12-08T00:07:34.675Z,1.33
2018-12-08T00:10:03.516Z,1.40
2018-12-08T00:12:31.875Z,1.80
2018-12-08T00:15:00.713Z,1.17
2018-12-08T00:17:29.092Z,1.90
2018-12-08T00:19:57.464Z,1.30
2018-12-08T00:22:25.841Z,0.60
2018-12-08T00:24:54.223Z,2.10
2018-12-08T00:27:22.615Z,1.63
2018-12-08T00:29:50.981Z,0.80
2018-12-08T00:32:19.367Z,1.33
2018-12-08T00:34:47.727Z,1.50
2018-12-08T00:37:16.109Z,1.10
2018-12-08T00:39:44.465Z,0.60
2018-12-08T00:42:12.853Z,0.73
2018-12-08T00:44:41.550Z,1.23
2018-12-08T00:47:09.912Z,0.80
2018-12-08T00:49:38.558Z,1.43
2018-12-08T00:52:07.276Z,1.30
2018-12-08T00:54:35.659Z,1.87
2018-12-08T00:57:04.072Z,1.33
2018-12-08T00:59:32.453Z,0.93
2018-12-08T01:02:00.821Z,0.90
2018-12-08T01:04:29.211Z,1.13
2018-12-08T01:06:57.598Z,1.00
2018-12-08T01:09:26.224Z,1.47
2018-12-08T01:11:54.668Z,1.60
2018-12-08T01:14:23.027Z,0.70
2018-12-08T01:16:51.668Z,0.60
2018-12-08T01:19:20.065Z,0.73
2018-12-08T01:21:48.435Z,0.60
2018-12-08T01:24:16.879Z,0.50
2018-12-08T01:26:45.262Z,0.33
2018-12-08T01:29:13.616Z,1.27
2018-12-08T01:31:42.116Z,1.10
2018-12-08T01:34:10.494Z,1.67
2018-12-08T01:36:38.857Z,1.43
2018-12-08T01:39:08.036Z,1.00
2018-12-08T01:41:36.431Z,1.77
2018-12-08T01:44:05.245Z,1.43
2018-12-08T01:46:33.639Z,1.10
2018-12-08T01:49:02.018Z,1.07
2018-12-08T01:51:31.364Z,0.90
2018-12-08T01:54:00.328Z,1.67
2018-12-08T01:56:28.711Z,0.80
2018-12-08T01:58:57.100Z,0.90
2018-12-08T02:01:25.501Z,1.07
2018-12-08T02:03:54.350Z,1.40
2018-12-08T02:06:22.747Z,1.20
2018-12-08T02:08:51.162Z,1.40
2018-12-08T02:11:24.853Z,2.10
2018-12-08T02:13:49.963Z,0.60
2018-12-08T02:16:18.357Z,1.67
2018-12-08T02:18:46.779Z,1.37
2018-12-08T02:21:15.167Z,0.60
2018-12-08T02:23:43.590Z,0.87
2018-12-08T02:26:11.986Z,1.37
2018-12-08T02:28:40.366Z,1.13
2018-12-08T02:31:08.806Z,1.57
2018-12-08T02:33:37.195Z,0.93
2018-12-08T02:36:05.576Z,1.67
2018-12-08T02:38:33.997Z,1.37
2018-12-08T02:41:02.379Z,0.67
2018-12-08T02:43:30.771Z,1.20
2018-12-08T02:45:59.165Z,0.73
2018-12-08T02:48:27.552Z,2.03
2018-12-08T02:50:55.936Z,0.60
2018-12-08T02:53:24.352Z,1.23
2018-12-08T02:55:52.749Z,2.00
2018-12-08T02:58:21.134Z,1.40
2018-12-08T03:00:49.585Z,1.60
2018-12-08T03:03:18.002Z,1.23
2018-12-08T03:05:46.385Z,2.40
2018-12-08T03:08:14.855Z,1.17
2018-12-08T03:10:43.243Z,1.17
2018-12-08T03:13:11.604Z,1.40
2018-12-08T03:15:39.990Z,1.10
2018-12-08T03:18:08.379Z,1.23
2018-12-08T03:20:36.779Z,1.10
2018-12-08T03:23:05.128Z,0.70
2018-12-08T03:25:33.859Z,1.07
2018-12-08T03:28:02.237Z,1.40
2018-12-08T03:30:30.622Z,2.43
2018-12-08T03:32:59.249Z,2.10
2018-12-08T03:35:27.884Z,1.17
2018-12-08T03:37:56.227Z,0.90
2018-12-08T03:40:24.950Z,1.00
2018-12-08T03:42:54.426Z,0.67
2018-12-08T03:45:22.796Z,0.97
2018-12-08T03:47:51.213Z,0.93
2018-12-08T03:50:19.773Z,1.03
2018-12-08T03:52:48.145Z,1.20
2018-12-08T03:55:16.511Z,1.67
2018-12-08T03:57:44.897Z,0.70
2018-12-08T04:00:13.745Z,0.73
2018-12-08T04:02:42.236Z,0.87
2018-12-08T04:05:10.655Z,1.23
2018-12-08T04:07:39.038Z,0.73
2018-12-08T04:10:07.880Z,1.07
2018-12-08T04:12:36.276Z,1.80
2018-12-08T04:15:06.317Z,1.17
2018-12-08T04:17:34.708Z,1.30
2018-12-08T04:20:03.551Z,1.17
2018-12-08T04:22:31.915Z,2.13
2018-12-08T04:25:00.274Z,1.37
2018-12-08T04:27:31.726Z,1.97
2018-12-08T04:30:00.119Z,1.20
2018-12-08T04:32:28.533Z,2.37
2018-12-08T04:34:56.911Z,1.67
2018-12-08T04:37:25.307Z,0.80
2018-12-08T04:39:53.704Z,1.50
2018-12-08T04:42:22.061Z,1.40
2018-12-08T04:44:50.449Z,1.67
2018-12-08T04:47:18.823Z,2.27
2018-12-08T04:49:47.193Z,1.33
2018-12-08T04:52:15.565Z,1.03
2018-12-08T04:54:43.943Z,0.80
2018-12-08T04:57:12.293Z,1.33
2018-12-08T04:59:40.672Z,1.17
2018-12-08T05:02:09.052Z,1.10
2018-12-08T05:04:37.429Z,0.47
2018-12-08T05:07:05.780Z,0.93
2018-12-08T05:09:34.164Z,0.80
2018-12-08T05:12:02.573Z,1.10
2018-12-08T05:14:30.986Z,1.00
2018-12-08T05:16:59.343Z,1.27
2018-12-08T05:19:27.764Z,1.90
2018-12-08T05:21:56.136Z,1.93
2018-12-08T05:24:26.184Z,1.27
2018-12-08T05:26:54.618Z,1.33
2018-12-08T05:29:23.011Z,1.87
2018-12-08T05:31:51.397Z,1.17
2018-12-08T05:34:19.760Z,1.23
2018-12-08T05:36:48.122Z,2.77
2018-12-08T05:39:16.480Z,1.00
2018-12-08T05:41:44.851Z,1.43
2018-12-08T05:44:13.200Z,1.13
2018-12-08T05:46:41.568Z,1.50
2018-12-08T05:49:09.945Z,1.13
2018-12-08T05:51:38.308Z,1.33
2018-12-08T05:54:06.680Z,1.47
2018-12-08T05:56:35.051Z,0.80
2018-12-08T05:59:03.848Z,1.17
2018-12-08T06:01:33.952Z,1.73
2018-12-08T06:04:02.300Z,0.90
2018-12-08T06:06:30.650Z,0.60
2018-12-08T06:08:59.024Z,1.27
2018-12-08T06:11:27.399Z,1.60
2018-12-08T06:13:55.776Z,0.73
2018-12-08T06:16:24.141Z,3.60
2018-12-08T06:18:52.672Z,0.70
2018-12-08T06:21:35.285Z,1.70
2018-12-08T06:24:04.559Z,1.00
2018-12-08T06:26:38.288Z,1.40
2018-12-08T06:29:06.659Z,2.80
2018-12-08T06:31:35.030Z,0.60
2018-12-08T06:34:03.403Z,0.83
2018-12-08T06:36:31.775Z,1.53
2018-12-08T06:39:00.144Z,0.60
2018-12-08T06:41:28.556Z,1.23
2018-12-08T06:43:56.944Z,1.17
2018-12-08T06:46:25.382Z,1.17
2018-12-08T06:48:53.824Z,1.30
2018-12-08T06:51:22.254Z,1.00
2018-12-08T06:53:50.817Z,0.63
2018-12-08T06:56:19.650Z,0.60
2018-12-08T06:58:48.013Z,1.00
2018-12-08T07:01:16.394Z,0.70
2018-12-08T07:03:44.772Z,1.03
2018-12-08T07:06:13.150Z,1.07
2018-12-08T07:08:41.498Z,0.83
2018-12-08T07:11:09.855Z,0.60
2018-12-08T07:13:38.218Z,0.67
2018-12-08T07:16:06.603Z,1.67
2018-12-08T07:18:34.972Z,0.60
2018-12-08T07:21:03.357Z,0.80
2018-12-08T07:23:31.728Z,0.60
2018-12-08T07:26:00.103Z,0.57
2018-12-08T07:28:28.455Z,1.57
2018-12-08T07:30:56.832Z,1.63
2018-12-08T07:33:25.195Z,1.60
2018-12-08T07:35:53.559Z,0.93
2018-12-08T07:38:21.900Z,1.13
2018-12-08T07:40:50.281Z,0.90
2018-12-08T07:43:18.632Z,1.60
2018-12-08T07:45:47.016Z,0.63
2018-12-08T07:48:15.376Z,1.20
2018-12-08T07:50:44.091Z,0.83
2018-12-08T07:53:12.436Z,0.93
2018-12-08T07:55:40.795Z,0.80
2018-12-08T07:58:09.615Z,1.17
2018-12-08T08:00:37.983Z,2.00
2018-12-08T08:03:06.351Z,1.17
2018-12-08T08:05:34.708Z,1.10
2018-12-08T08:08:03.103Z,1.00
2018-12-08T08:10:31.484Z,0.90
2018-12-08T08:12:59.862Z,1.73
2018-12-08T08:15:28.231Z,1.80
2018-12-08T08:17:56.600Z,1.10
2018-12-08T08:20:24.968Z,0.70
2018-12-08T08:22:53.353Z,0.73
2018-12-08T08:25:21.708Z,0.57
2018-12-08T08:27:50.092Z,0.60
2018-12-08T08:30:19.336Z,0.93
2018-12-08T08:32:47.730Z,1.27
2018-12-08T08:35:16.101Z,0.83
2018-12-08T08:37:44.456Z,0.87
2018-12-08T08:40:12.828Z,1.47
2018-12-08T08:42:41.180Z,1.67
2018-12-08T08:45:10.456Z,0.70
2018-12-08T08:47:38.813Z,0.73
2018-12-08T08:50:10.018Z,0.93
2018-12-08T08:52:38.368Z,1.30
2018-12-08T08:55:07.964Z,1.00
2018-12-08T08:57:36.314Z,1.00
2018-12-08T09:00:07.564Z,0.90
2018-12-08T09:02:35.916Z,1.57
2018-12-08T09:05:05.937Z,0.90
2018-12-08T09:07:34.735Z,1.53
2018-12-08T09:10:04.340Z,1.63
2018-12-08T09:12:32.699Z,1.00
2018-12-08T09:15:01.084Z,2.30
2018-12-08T09:17:29.436Z,1.30
2018-12-08T09:19:57.816Z,1.70
2018-12-08T09:22:26.183Z,0.87
2018-12-08T09:24:54.565Z,0.73
2018-12-08T09:27:22.936Z,1.00
2018-12-08T09:29:51.317Z,1.10
2018-12-08T09:32:19.719Z,1.30
2018-12-08T09:34:48.256Z,1.40
2018-12-08T09:37:16.623Z,3.00
2018-12-08T09:39:44.992Z,1.33
2018-12-08T09:42:13.387Z,2.07
2018-12-08T09:44:41.747Z,1.23
2018-12-08T09:47:10.125Z,1.93
2018-12-08T09:49:38.584Z,1.70
2018-12-08T09:52:06.992Z,1.60
2018-12-08T09:54:35.374Z,2.93
2018-12-08T09:57:03.772Z,1.07
2018-12-08T09:59:32.181Z,1.30
2018-12-08T10:02:00.549Z,0.90
2018-12-08T10:04:28.914Z,2.20
2018-12-08T10:06:57.296Z,1.80
2018-12-08T10:09:25.667Z,3.10
2018-12-08T10:11:54.060Z,2.33
2018-12-08T10:14:22.418Z,2.57
2018-12-08T10:16:50.796Z,3.23
2018-12-08T10:19:19.241Z,1.30
2018-12-08T10:21:47.613Z,1.97
2018-12-08T10:24:15.985Z,1.87
2018-12-08T10:26:44.332Z,2.23
2018-12-08T10:29:12.716Z,2.53
2018-12-08T10:31:41.096Z,1.73
2018-12-08T10:34:10.247Z,2.13
2018-12-08T10:36:38.609Z,2.37
2018-12-08T10:39:09.146Z,2.57
2018-12-08T10:41:37.699Z,2.53
2018-12-08T10:44:06.067Z,2.00
2018-12-08T10:46:34.544Z,1.80
2018-12-08T10:49:02.900Z,3.07
2018-12-08T10:51:31.671Z,3.47
2018-12-08T10:54:00.304Z,3.20
2018-12-08T10:56:29.173Z,3.70
2018-12-08T10:58:57.571Z,4.40
2018-12-08T11:01:30.301Z,2.00
2018-12-08T11:03:58.796Z,2.33
2018-12-08T11:06:27.299Z,3.03
2018-12-08T11:08:55.771Z,1.90
2018-12-08T11:11:24.264Z,3.13
2018-12-08T11:13:52.785Z,3.33
2018-12-08T11:16:21.193Z,3.00
2018-12-08T11:18:49.564Z,3.30
2018-12-08T11:21:17.952Z,2.53
2018-12-08T11:23:46.316Z,2.80
2018-12-08T11:26:14.684Z,3.33
2018-12-08T11:28:43.057Z,1.70
2018-12-08T11:31:11.456Z,3.57
2018-12-08T11:33:39.856Z,6.80
2018-12-08T11:36:08.690Z,3.90
2018-12-08T11:38:37.232Z,2.33
2018-12-08T11:41:05.686Z,2.50
2018-12-08T11:43:34.483Z,2.67
2018-12-08T11:46:02.856Z,3.10
2018-12-08T11:48:31.268Z,1.60
2018-12-08T11:50:59.639Z,2.50
2018-12-08T11:53:28.004Z,2.67
2018-12-08T11:55:56.688Z,2.43
2018-12-08T11:58:25.048Z,3.27
2018-12-08T12:00:53.423Z,3.30
2018-12-08T12:03:22.256Z,2.60
2018-12-08T12:05:50.649Z,2.40
2018-12-08T12:08:19.257Z,3.57
2018-12-08T12:10:47.611Z,5.10
2018-12-08T12:13:15.994Z,2.50
2018-12-08T12:15:44.343Z,2.33
2018-12-08T12:18:12.772Z,3.07
2018-12-08T12:20:41.128Z,2.23
2018-12-08T12:23:09.499Z,3.20
2018-12-08T12:25:38.208Z,1.50
2018-12-08T12:28:07.156Z,2.40
2018-12-08T12:30:36.117Z,2.50
2018-12-08T12:33:04.513Z,2.23
2018-12-08T12:35:32.907Z,2.20
2018-12-08T12:38:01.258Z,0.97
2018-12-08T12:40:29.641Z,1.70
2018-12-08T12:42:58.004Z,4.30
2018-12-08T12:45:26.385Z,3.03
2018-12-08T12:47:55.189Z,3.93
2018-12-08T12:50:23.557Z,3.60
2018-12-08T12:52:51.930Z,2.00
2018-12-08T12:55:20.295Z,1.60
2018-12-08T12:57:48.656Z,2.20
2018-12-08T13:00:17.047Z,2.93
2018-12-08T13:02:45.461Z,2.93
2018-12-08T13:05:13.837Z,2.60
2018-12-08T13:07:42.204Z,3.10
2018-12-08T13:10:10.692Z,3.00
2018-12-08T13:12:39.576Z,2.37
2018-12-08T13:15:07.951Z,1.77
2018-12-08T13:17:36.320Z,1.53
2018-12-08T13:20:05.453Z,1.53
2018-12-08T13:22:33.858Z,3.53
2018-12-08T13:25:13.507Z,2.23
2018-12-08T13:27:41.891Z,2.50
2018-12-08T13:30:10.604Z,2.53
2018-12-08T13:32:38.992Z,3.13
2018-12-08T13:35:08.446Z,3.10
2018-12-08T13:37:36.804Z,2.60
2018-12-08T13:40:05.219Z,1.47
2018-12-08T13:42:33.884Z,2.10
2018-12-08T13:45:18.594Z,2.07
2018-12-08T13:47:46.981Z,2.80
2018-12-08T13:50:15.336Z,2.53
2018-12-08T13:52:43.719Z,2.93
2018-12-08T13:55:13.067Z,1.57
2018-12-08T13:57:41.436Z,2.47
2018-12-08T14:00:10.468Z,3.30
2018-12-08T14:02:38.855Z,2.30
2018-12-08T14:05:08.805Z,2.63
2018-12-08T14:07:37.425Z,2.73
2018-12-08T14:10:07.421Z,2.73
2018-12-08T14:12:36.312Z,2.80
2018-12-08T14:15:05.563Z,2.30
2018-12-08T14:17:34.356Z,2.13
2018-12-08T14:20:19.947Z,3.53
2018-12-08T14:22:48.785Z,2.80
2018-12-08T14:25:17.140Z,4.13
2018-12-08T14:27:46.212Z,4.10
2018-12-08T14:30:15.012Z,2.83
2018-12-08T14:32:43.399Z,3.77
2018-12-08T14:35:12.757Z,2.70
2018-12-08T14:37:41.151Z,2.53
2018-12-08T14:40:10.267Z,3.00
2018-12-08T14:42:38.639Z,1.13
2018-12-08T14:45:10.195Z,3.00
2018-12-08T14:47:39.461Z,3.27
2018-12-08T14:50:10.360Z,3.67
2018-12-08T14:52:39.647Z,2.80
2018-12-08T14:55:10.228Z,3.37
2018-12-08T14:57:39.096Z,2.73
2018-12-08T15:00:10.789Z,2.93
2018-12-08T15:02:39.637Z,1.87
2018-12-08T15:05:10.655Z,1.90
2018-12-08T15:07:39.492Z,4.70
2018-12-08T15:10:10.491Z,2.60
2018-12-08T15:12:38.873Z,2.93
2018-12-08T15:15:09.520Z,3.50
2018-12-08T15:17:38.362Z,2.67
2018-12-08T15:20:08.990Z,3.00
2018-12-08T15:22:37.671Z,1.50
2018-12-08T15:25:08.762Z,3.00
2018-12-08T15:27:38.032Z,2.47
2018-12-08T15:30:08.975Z,2.87
2018-12-08T15:32:37.360Z,2.77
2018-12-08T15:35:08.484Z,3.80
2018-12-08T15:37:37.344Z,2.50
2018-12-08T15:40:07.237Z,2.10
2018-12-08T15:42:35.647Z,4.50
2018-12-08T15:45:05.864Z,3.00
2018-12-08T15:47:34.312Z,1.57
2018-12-08T15:50:02.684Z,4.73
2018-12-08T15:52:31.163Z,2.73
2018-12-08T15:54:59.532Z,2.93
2018-12-08T15:57:27.876Z,2.60
2018-12-08T15:59:56.267Z,2.93
2018-12-08T16:02:24.733Z,2.90
2018-12-08T16:04:53.113Z,2.30
2018-12-08T16:07:21.938Z,4.20
2018-12-08T16:09:50.302Z,2.63
2018-12-08T16:12:18.674Z,2.37
2018-12-08T16:14:47.048Z,1.00
2018-12-08T16:17:15.429Z,3.27
2018-12-08T16:19:43.811Z,2.50
2018-12-08T16:22:12.197Z,2.30
2018-12-08T16:24:41.018Z,1.60
2018-12-08T16:27:09.446Z,2.13
2018-12-08T16:29:37.822Z,3.27
2018-12-08T16:32:06.190Z,2.93
2018-12-08T16:34:34.564Z,2.33
2018-12-08T16:37:03.138Z,1.90
2018-12-08T16:39:31.786Z,4.60
2018-12-08T16:42:00.191Z,1.17
2018-12-08T16:44:28.599Z,0.80
2018-12-08T16:46:57.007Z,1.00
2018-12-08T16:49:25.375Z,1.30
2018-12-08T16:51:54.151Z,0.97
2018-12-08T16:54:22.548Z,1.57
2018-12-08T16:56:51.367Z,0.77
2018-12-08T16:59:19.751Z,1.20
2018-12-08T17:01:53.262Z,2.10
2018-12-08T17:04:22.685Z,2.00
2018-12-08T17:06:51.549Z,1.23
2018-12-08T17:09:19.908Z,1.63
2018-12-08T17:11:48.727Z,1.97
2018-12-08T17:14:17.075Z,0.93
2018-12-08T17:16:45.612Z,1.23
2018-12-08T17:19:13.969Z,1.70
2018-12-08T17:21:42.771Z,1.23
2018-12-08T17:24:11.152Z,1.00
2018-12-08T17:26:39.972Z,2.80
2018-12-08T17:29:08.332Z,1.80
2018-12-08T17:31:36.691Z,1.77
2018-12-08T17:34:05.169Z,0.90
2018-12-08T17:36:33.519Z,0.77
2018-12-08T17:39:01.914Z,1.07
2018-12-08T17:41:30.312Z,1.30
2018-12-08T17:43:58.695Z,1.00
2018-12-08T17:46:27.056Z,0.83
2018-12-08T17:48:56.206Z,1.27
2018-12-08T17:51:24.842Z,1.30
2018-12-08T17:53:53.220Z,0.90
2018-12-08T17:56:21.615Z,1.03
2018-12-08T17:58:49.987Z,1.10
2018-12-08T18:01:18.729Z,0.90
2018-12-08T18:03:47.142Z,0.80
2018-12-08T18:06:15.541Z,1.77
2018-12-08T18:08:44.065Z,1.20
2018-12-08T18:11:12.480Z,0.73
2018-12-08T18:13:40.829Z,1.03
2018-12-08T18:16:09.224Z,2.10
2018-12-08T18:18:37.623Z,0.83
2018-12-08T18:21:06.124Z,0.60
2018-12-08T18:23:34.920Z,1.10
2018-12-08T18:26:03.302Z,1.00
2018-12-08T18:28:31.686Z,1.00
2018-12-08T18:31:00.075Z,1.03
2018-12-08T18:33:28.440Z,0.40
2018-12-08T18:35:57.314Z,1.30
2018-12-08T18:38:25.869Z,0.90
2018-12-08T18:40:54.343Z,1.60
2018-12-08T18:43:23.033Z,0.80
2018-12-08T18:45:51.396Z,1.20
2018-12-08T18:48:19.771Z,1.23
2018-12-08T18:50:48.122Z,1.23
2018-12-08T18:53:16.509Z,1.40
2018-12-08T18:55:44.902Z,0.93
2018-12-08T18:58:13.263Z,0.53
2018-12-08T19:00:42.071Z,1.23
2018-12-08T19:03:10.445Z,0.70
2018-12-08T19:05:38.815Z,1.43
2018-12-08T19:08:07.206Z,1.00
2018-12-08T19:10:35.582Z,0.70
2018-12-08T19:13:04.384Z,0.80
2018-12-08T19:15:32.784Z,0.60
2018-12-08T19:18:01.177Z,0.60
2018-12-08T19:20:30.032Z,0.60
2018-12-08T19:22:58.409Z,0.67
2018-12-08T19:25:26.775Z,0.83
2018-12-08T19:27:55.125Z,0.70
2018-12-08T19:30:23.516Z,0.83
2018-12-08T19:32:51.885Z,0.80
2018-12-08T19:35:20.259Z,0.67
2018-12-08T19:37:48.620Z,0.77
2018-12-08T19:40:17.444Z,0.50
2018-12-08T19:42:45.825Z,0.80
2018-12-08T19:45:14.196Z,0.70
2018-12-08T19:47:42.583Z,0.60
2018-12-08T19:50:10.964Z,0.43
2018-12-08T19:52:39.328Z,0.60
2018-12-08T19:55:08.138Z,0.70
2018-12-08T19:57:36.853Z,0.50
2018-12-08T20:00:07.409Z,0.37
2018-12-08T20:02:35.785Z,0.50
2018-12-08T20:05:05.260Z,1.00
2018-12-08T20:07:33.624Z,0.40
2018-12-08T20:10:01.996Z,0.53
2018-12-08T20:12:30.368Z,0.60
2018-12-08T20:14:58.740Z,0.47
2018-12-08T20:17:27.096Z,0.40
2018-12-08T20:19:55.513Z,0.60
2018-12-08T20:22:23.892Z,0.67
2018-12-08T20:24:52.259Z,0.67
2018-12-08T20:27:20.636Z,0.63
2018-12-08T20:29:49.002Z,0.70
2018-12-08T20:32:17.412Z,0.60
2018-12-08T20:34:45.788Z,1.60
2018-12-08T20:37:14.157Z,0.93
2018-12-08T20:39:42.527Z,0.90
2018-12-08T20:42:10.906Z,0.63
2018-12-08T20:44:39.811Z,0.60
2018-12-08T20:47:08.185Z,0.90
2018-12-08T20:49:36.537Z,0.70
2018-12-08T20:52:04.899Z,0.53
2018-12-08T20:54:33.248Z,1.00
2018-12-08T20:57:01.618Z,0.83
2018-12-08T20:59:29.971Z,0.97
2018-12-08T21:01:58.805Z,0.90
2018-12-08T21:04:27.274Z,1.00
2018-12-08T21:06:55.649Z,1.00
2018-12-08T21:09:24.003Z,0.73
2018-12-08T21:11:52.789Z,0.87
2018-12-08T21:14:21.132Z,0.90
2018-12-08T21:16:49.496Z,0.90
2018-12-08T21:19:17.856Z,1.00
2018-12-08T21:21:46.227Z,1.00
2018-12-08T21:24:14.568Z,1.30
2018-12-08T21:26:43.492Z,0.87
2018-12-08T21:29:11.847Z,0.97
2018-12-08T21:31:40.223Z,1.17
2018-12-08T21:34:08.579Z,0.93
2018-12-08T21:36:36.967Z,0.97
2018-12-08T21:39:07.054Z,0.97
2018-12-08T21:41:35.423Z,1.40
2018-12-08T21:44:03.788Z,1.20
2018-12-08T21:46:32.146Z,1.53
2018-12-08T21:49:00.514Z,1.03
2018-12-08T21:51:28.868Z,1.77
2018-12-08T21:53:57.258Z,1.80
2018-12-08T21:56:25.615Z,1.10
2018-12-08T21:58:53.997Z,1.43
2018-12-08T22:01:22.364Z,2.07
2018-12-08T22:03:50.744Z,3.43
2018-12-08T22:06:19.113Z,1.43
2018-12-08T22:08:47.481Z,1.07
2018-12-08T22:11:15.868Z,2.10
2018-12-08T22:13:44.235Z,1.60
2018-12-08T22:16:12.605Z,1.43
2018-12-08T22:18:40.981Z,1.57
2018-12-08T22:21:09.336Z,2.10
2018-12-08T22:23:37.711Z,1.60
2018-12-08T22:26:06.763Z,2.23
2018-12-08T22:28:35.152Z,2.00
2018-12-08T22:31:03.967Z,3.60
2018-12-08T22:33:32.333Z,1.93
2018-12-08T22:36:00.692Z,2.50
2018-12-08T22:38:29.068Z,2.67
2018-12-08T22:40:57.451Z,2.37
2018-12-08T22:43:25.820Z,2.50
2018-12-08T22:45:54.171Z,1.93
2018-12-08T22:48:23.000Z,1.77
2018-12-08T22:50:51.375Z,2.13
2018-12-08T22:53:19.968Z,1.70
2018-12-08T22:55:54.673Z,1.27
2018-12-08T22:58:23.016Z,4.07
2018-12-08T23:00:53.256Z,2.57
2018-12-08T23:03:21.627Z,3.63
2018-12-08T23:05:50.008Z,3.43
2018-12-08T23:08:18.824Z,2.30
2018-12-08T23:10:47.232Z,2.57
2018-12-08T23:13:16.025Z,4.73
2018-12-08T23:15:44.967Z,4.17
2018-12-08T23:18:13.316Z,5.00
2018-12-08T23:20:41.685Z,3.80
2018-12-08T23:23:10.038Z,2.90
2018-12-08T23:25:38.417Z,2.77
2018-12-08T23:28:06.777Z,1.90
2018-12-08T23:30:35.147Z,2.63
2018-12-08T23:33:03.510Z,2.37
2018-12-08T23:35:31.873Z,2.10
2018-12-08T23:38:00.252Z,1.87
2018-12-08T23:40:28.629Z,2.83
2018-12-08T23:42:56.990Z,3.30
2018-12-08T23:45:25.380Z,3.30
2018-12-08T23:47:53.731Z,3.90
2018-12-08T23:50:22.104Z,2.47
2018-12-08T23:52:50.459Z,3.43
2018-12-08T23:55:18.846Z,3.93
2018-12-08T23:57:47.258Z,2.50
